FIN5PK EFHK-EFKT
Flight info
| Callsign | FIN5PK |
|---|---|
| Flight time | N/A |
| Altitude | 36000 |
| Route | TEVRU Y75 EVIMI |
| Aircraft | A321/M-SDE3FGHIRWY/LB1 |
Departure
| Time | N/A |
|---|---|
| Airport | Helsinki Vantaa Airport (EFHK) |
Arrival
| Time | 2026-04-28 17:25 |
|---|---|
| Airport | Kittilä International Airport (EFKT) |
| Time | Latitude | Longitude | Altitude | Speed | Heading |
|---|---|---|---|---|---|
| 2026-04-28 16:27 | 61.87982 | 25.02553 | 32094 ft | 434 kts | 1° |
| 2026-04-28 16:28 | 61.90999 | 25.02664 | 32347 ft | 433 kts | 1° |
| 2026-04-28 16:28 | 61.92995 | 25.02739 | 32508 ft | 433 kts | 1° |
| 2026-04-28 16:28 | 61.97029 | 25.02895 | 32832 ft | 433 kts | 1° |
| 2026-04-28 16:28 | 62.00004 | 25.03013 | 33066 ft | 433 kts | 1° |
| 2026-04-28 16:29 | 62.06023 | 25.03253 | 33553 ft | 432 kts | 1° |
| 2026-04-28 16:29 | 62.12050 | 25.03493 | 33996 ft | 433 kts | 1° |
| 2026-04-28 16:30 | 62.15067 | 25.03612 | 34198 ft | 434 kts | 1° |
| 2026-04-28 16:30 | 62.17065 | 25.03691 | 34323 ft | 434 kts | 1° |
| 2026-04-28 16:30 | 62.20084 | 25.03807 | 34504 ft | 434 kts | 1° |
| 2026-04-28 16:30 | 62.23101 | 25.03915 | 34689 ft | 434 kts | 1° |
| 2026-04-28 16:31 | 62.26121 | 25.04017 | 34866 ft | 434 kts | 1° |
| 2026-04-28 16:31 | 62.29150 | 25.04120 | 35042 ft | 434 kts | 1° |
| 2026-04-28 16:31 | 62.32167 | 25.04228 | 35222 ft | 434 kts | 1° |
| 2026-04-28 16:31 | 62.35185 | 25.04342 | 35385 ft | 434 kts | 1° |
| 2026-04-28 16:32 | 62.38206 | 25.04463 | 35561 ft | 434 kts | 1° |
| 2026-04-28 16:32 | 62.44239 | 25.04721 | 35915 ft | 434 kts | 1° |
| 2026-04-28 16:32 | 62.47253 | 25.04851 | 36088 ft | 434 kts | 1° |
| 2026-04-28 16:33 | 62.52258 | 25.05059 | 36171 ft | 431 kts | 1° |
| 2026-04-28 16:33 | 62.59229 | 25.05320 | 36172 ft | 427 kts | 1° |
| 2026-04-28 16:34 | 62.65136 | 25.05532 | 36172 ft | 427 kts | 1° |
| 2026-04-28 16:34 | 62.71077 | 25.05766 | 36180 ft | 427 kts | 1° |
| 2026-04-28 16:35 | 62.77011 | 25.06005 | 36182 ft | 427 kts | 1° |
| 2026-04-28 16:35 | 62.82956 | 25.06235 | 36187 ft | 427 kts | 1° |
| 2026-04-28 16:36 | 62.88903 | 25.06465 | 36183 ft | 428 kts | 1° |
| 2026-04-28 16:36 | 62.94856 | 25.06711 | 36192 ft | 428 kts | 1° |
| 2026-04-28 16:37 | 63.00818 | 25.06954 | 36206 ft | 428 kts | 1° |
| 2026-04-28 16:38 | 63.09754 | 25.07307 | 36205 ft | 428 kts | 1° |
| 2026-04-28 16:38 | 63.15712 | 25.07557 | 36205 ft | 428 kts | 1° |
| 2026-04-28 16:39 | 63.21676 | 25.07809 | 36208 ft | 429 kts | 1° |
| 2026-04-28 16:39 | 63.27604 | 25.08054 | 36206 ft | 429 kts | 1° |
| 2026-04-28 16:40 | 63.33588 | 25.08299 | 36205 ft | 428 kts | 1° |
| 2026-04-28 16:40 | 63.39545 | 25.08534 | 36219 ft | 428 kts | 1° |
| 2026-04-28 16:41 | 63.45500 | 25.08764 | 36226 ft | 428 kts | 1° |
| 2026-04-28 16:41 | 63.51456 | 25.09006 | 36227 ft | 428 kts | 1° |
| 2026-04-28 16:42 | 63.57417 | 25.09264 | 36225 ft | 428 kts | 1° |
| 2026-04-28 16:42 | 63.63342 | 25.09506 | 36238 ft | 428 kts | 1° |
| 2026-04-28 16:43 | 63.69297 | 25.09743 | 36234 ft | 428 kts | 1° |
| 2026-04-28 16:43 | 63.75262 | 25.09986 | 36235 ft | 428 kts | 1° |
| 2026-04-28 16:44 | 63.81217 | 25.10242 | 36233 ft | 428 kts | 1° |
| 2026-04-28 16:44 | 63.87173 | 25.10486 | 36225 ft | 428 kts | 1° |
| 2026-04-28 16:45 | 63.93133 | 25.10742 | 36235 ft | 428 kts | 1° |
| 2026-04-28 16:45 | 63.99098 | 25.11008 | 36237 ft | 429 kts | 1° |
| 2026-04-28 16:46 | 64.05072 | 25.11263 | 36215 ft | 428 kts | 1° |
| 2026-04-28 16:46 | 64.11027 | 25.11505 | 36231 ft | 428 kts | 1° |
| 2026-04-28 16:47 | 64.16937 | 25.11754 | 36232 ft | 428 kts | 1° |
| 2026-04-28 16:47 | 64.22889 | 25.12014 | 36245 ft | 427 kts | 1° |
| 2026-04-28 16:48 | 64.28842 | 25.12266 | 36247 ft | 427 kts | 1° |
| 2026-04-28 16:48 | 64.34787 | 25.12524 | 36247 ft | 427 kts | 1° |
| 2026-04-28 16:49 | 64.40736 | 25.12789 | 36246 ft | 427 kts | 1° |
| 2026-04-28 16:49 | 64.46675 | 25.12990 | 36246 ft | 427 kts | 1° |
| 2026-04-28 16:50 | 64.52617 | 25.12977 | 36253 ft | 427 kts | 0° |
| 2026-04-28 16:50 | 64.58564 | 25.12913 | 36248 ft | 427 kts | 0° |
| 2026-04-28 16:51 | 64.64504 | 25.12891 | 36244 ft | 427 kts | 0° |
| 2026-04-28 16:51 | 64.70409 | 25.12893 | 36242 ft | 427 kts | 1° |
| 2026-04-28 16:52 | 64.76355 | 25.12906 | 36235 ft | 427 kts | 0° |
| 2026-04-28 16:52 | 64.82291 | 25.12899 | 36237 ft | 426 kts | 0° |
| 2026-04-28 16:53 | 64.88218 | 25.12899 | 36250 ft | 425 kts | 1° |
| 2026-04-28 16:53 | 64.94132 | 25.12916 | 36255 ft | 425 kts | 1° |
| 2026-04-28 16:54 | 65.00014 | 25.12924 | 36256 ft | 425 kts | 0° |
| 2026-04-28 16:54 | 65.05924 | 25.12908 | 36255 ft | 424 kts | 0° |
| 2026-04-28 16:55 | 65.11842 | 25.12907 | 36262 ft | 425 kts | 0° |
| 2026-04-28 16:55 | 65.17757 | 25.12920 | 36255 ft | 425 kts | 0° |
| 2026-04-28 16:56 | 65.23687 | 25.12891 | 36249 ft | 425 kts | 0° |
| 2026-04-28 16:56 | 65.29567 | 25.12852 | 36246 ft | 426 kts | 0° |
| 2026-04-28 16:57 | 65.35496 | 25.12819 | 36247 ft | 426 kts | 0° |
| 2026-04-28 16:57 | 65.41423 | 25.12797 | 36260 ft | 426 kts | 0° |
| 2026-04-28 16:58 | 65.47349 | 25.12762 | 36256 ft | 426 kts | 0° |
| 2026-04-28 16:58 | 65.53276 | 25.12730 | 36252 ft | 426 kts | 0° |
| 2026-04-28 16:59 | 65.59205 | 25.12704 | 36248 ft | 427 kts | 0° |
| 2026-04-28 16:59 | 65.65147 | 25.12683 | 36251 ft | 427 kts | 0° |
| 2026-04-28 17:00 | 65.71097 | 25.12652 | 36258 ft | 427 kts | 0° |
| 2026-04-28 17:00 | 65.77046 | 25.12616 | 36260 ft | 427 kts | 0° |
| 2026-04-28 17:01 | 65.83000 | 25.12579 | 36262 ft | 427 kts | 0° |
| 2026-04-28 17:01 | 65.88946 | 25.12547 | 36263 ft | 427 kts | 0° |
| 2026-04-28 17:02 | 65.94896 | 25.12507 | 35887 ft | 428 kts | 0° |
| 2026-04-28 17:02 | 65.96874 | 25.12497 | 35369 ft | 430 kts | 0° |
| 2026-04-28 17:02 | 66.00891 | 25.12489 | 34303 ft | 433 kts | 0° |
| 2026-04-28 17:02 | 66.03923 | 25.12480 | 33353 ft | 436 kts | 0° |
| 2026-04-28 17:03 | 66.09984 | 25.12441 | 31920 ft | 432 kts | 0° |
| 2026-04-28 17:03 | 66.12933 | 25.12295 | 31325 ft | 428 kts | 359° |
| 2026-04-28 17:03 | 66.15899 | 25.11901 | 30723 ft | 425 kts | 357° |
| 2026-04-28 17:04 | 66.21758 | 25.10708 | 29458 ft | 418 kts | 356° |
| 2026-04-28 17:04 | 66.24630 | 25.10089 | 28885 ft | 412 kts | 356° |
| 2026-04-28 17:05 | 66.30268 | 25.09001 | 27758 ft | 401 kts | 357° |
| 2026-04-28 17:05 | 66.33027 | 25.08523 | 27215 ft | 395 kts | 357° |
| 2026-04-28 17:05 | 66.35756 | 25.08056 | 26666 ft | 390 kts | 357° |
| 2026-04-28 17:06 | 66.41108 | 25.07140 | 25630 ft | 380 kts | 357° |
| 2026-04-28 17:06 | 66.43730 | 25.06683 | 25134 ft | 375 kts | 357° |
| 2026-04-28 17:06 | 66.48861 | 25.05771 | 24178 ft | 363 kts | 357° |
| 2026-04-28 17:07 | 66.51359 | 25.05331 | 23692 ft | 357 kts | 357° |
| 2026-04-28 17:07 | 66.53822 | 25.04893 | 23236 ft | 350 kts | 356° |
| 2026-04-28 17:07 | 66.56230 | 25.04462 | 22797 ft | 343 kts | 356° |
| 2026-04-28 17:07 | 66.58591 | 25.04036 | 22368 ft | 337 kts | 356° |
| 2026-04-28 17:08 | 66.60884 | 25.03617 | 21949 ft | 332 kts | 356° |
| 2026-04-28 17:08 | 66.63170 | 25.03197 | 21521 ft | 327 kts | 356° |
| 2026-04-28 17:08 | 66.65426 | 25.02785 | 21099 ft | 323 kts | 356° |
| 2026-04-28 17:08 | 66.67656 | 25.02382 | 20673 ft | 320 kts | 356° |
| 2026-04-28 17:09 | 66.69876 | 25.01979 | 20256 ft | 319 kts | 356° |
| 2026-04-28 17:09 | 66.72083 | 25.01585 | 19830 ft | 316 kts | 356° |
| 2026-04-28 17:09 | 66.74262 | 25.01199 | 19401 ft | 313 kts | 356° |
| 2026-04-28 17:09 | 66.76428 | 25.00807 | 18975 ft | 311 kts | 356° |
| 2026-04-28 17:10 | 66.78584 | 25.00418 | 18538 ft | 311 kts | 356° |
| 2026-04-28 17:10 | 66.80732 | 25.00027 | 18090 ft | 308 kts | 356° |
| 2026-04-28 17:10 | 66.82859 | 24.99632 | 17675 ft | 305 kts | 356° |
| 2026-04-28 17:10 | 66.84964 | 24.99241 | 17267 ft | 301 kts | 356° |
| 2026-04-28 17:11 | 66.87051 | 24.98853 | 16853 ft | 300 kts | 356° |
| 2026-04-28 17:11 | 66.89132 | 24.98464 | 16454 ft | 300 kts | 356° |
| 2026-04-28 17:11 | 66.91215 | 24.98076 | 16054 ft | 298 kts | 355° |
| 2026-04-28 17:11 | 66.93284 | 24.97693 | 15427 ft | 301 kts | 356° |
| 2026-04-28 17:12 | 66.95365 | 24.97307 | 14965 ft | 298 kts | 356° |
| 2026-04-28 17:12 | 66.97421 | 24.96929 | 14566 ft | 294 kts | 356° |
| 2026-04-28 17:12 | 66.99450 | 24.96558 | 14172 ft | 290 kts | 356° |
| 2026-04-28 17:12 | 67.01430 | 24.96191 | 13750 ft | 286 kts | 355° |
| 2026-04-28 17:13 | 67.03404 | 24.95817 | 13365 ft | 283 kts | 356° |
| 2026-04-28 17:13 | 67.05363 | 24.95450 | 12984 ft | 280 kts | 356° |
| 2026-04-28 17:13 | 67.07297 | 24.95086 | 12589 ft | 278 kts | 356° |
| 2026-04-28 17:13 | 67.09217 | 24.94726 | 12212 ft | 275 kts | 356° |
| 2026-04-28 17:14 | 67.11119 | 24.94372 | 11825 ft | 273 kts | 356° |
| 2026-04-28 17:14 | 67.13002 | 24.94018 | 11436 ft | 270 kts | 356° |
| 2026-04-28 17:14 | 67.14870 | 24.93667 | 11060 ft | 267 kts | 356° |
| 2026-04-28 17:14 | 67.16714 | 24.93327 | 10681 ft | 265 kts | 356° |
| 2026-04-28 17:15 | 67.18542 | 24.92987 | 10337 ft | 260 kts | 356° |
| 2026-04-28 17:15 | 67.20326 | 24.92649 | 9983 ft | 255 kts | 356° |
| 2026-04-28 17:15 | 67.22066 | 24.92319 | 9993 ft | 250 kts | 356° |
| 2026-04-28 17:15 | 67.23807 | 24.91992 | 10023 ft | 251 kts | 356° |
| 2026-04-28 17:16 | 67.24961 | 24.91791 | 10029 ft | 251 kts | 359° |
| 2026-04-28 17:16 | 67.26718 | 24.91987 | 9625 ft | 256 kts | 4° |
| 2026-04-28 17:16 | 67.28483 | 24.92314 | 9250 ft | 251 kts | 4° |
| 2026-04-28 17:16 | 67.30219 | 24.92652 | 8829 ft | 249 kts | 4° |
| 2026-04-28 17:17 | 67.31936 | 24.92996 | 8415 ft | 246 kts | 5° |
| 2026-04-28 17:17 | 67.33632 | 24.93334 | 8027 ft | 243 kts | 5° |
| 2026-04-28 17:17 | 67.35301 | 24.93655 | 7537 ft | 239 kts | 5° |
| 2026-04-28 17:17 | 67.36946 | 24.93967 | 7048 ft | 235 kts | 5° |
| 2026-04-28 17:18 | 67.38587 | 24.94284 | 6406 ft | 239 kts | 5° |
| 2026-04-28 17:18 | 67.40271 | 24.94615 | 5704 ft | 246 kts | 5° |
| 2026-04-28 17:18 | 67.41966 | 24.94945 | 5247 ft | 243 kts | 5° |
| 2026-04-28 17:18 | 67.43612 | 24.95268 | 5072 ft | 232 kts | 5° |
| 2026-04-28 17:19 | 67.45176 | 24.95567 | 4971 ft | 218 kts | 5° |
| 2026-04-28 17:19 | 67.46636 | 24.95841 | 4899 ft | 203 kts | 5° |
| 2026-04-28 17:19 | 67.47999 | 24.96100 | 4841 ft | 189 kts | 5° |
| 2026-04-28 17:19 | 67.49280 | 24.96347 | 4804 ft | 178 kts | 5° |
| 2026-04-28 17:20 | 67.50462 | 24.96574 | 4700 ft | 163 kts | 6° |
| 2026-04-28 17:20 | 67.51555 | 24.96425 | 4645 ft | 155 kts | 354° |
| 2026-04-28 17:20 | 67.52609 | 24.95883 | 4571 ft | 154 kts | 353° |
| 2026-04-28 17:20 | 67.53656 | 24.95267 | 4395 ft | 154 kts | 352° |
| 2026-04-28 17:21 | 67.54695 | 24.94624 | 4169 ft | 153 kts | 352° |
| 2026-04-28 17:21 | 67.55731 | 24.93969 | 3933 ft | 153 kts | 352° |
| 2026-04-28 17:21 | 67.56764 | 24.93309 | 3689 ft | 153 kts | 352° |
| 2026-04-28 17:22 | 67.58813 | 24.91993 | 3209 ft | 152 kts | 351° |
| 2026-04-28 17:22 | 67.59824 | 24.91340 | 2948 ft | 145 kts | 351° |
| 2026-04-28 17:22 | 67.60759 | 24.90734 | 2717 ft | 133 kts | 352° |
| 2026-04-28 17:23 | 67.62510 | 24.89606 | 2270 ft | 129 kts | 349° |
| 2026-04-28 17:23 | 67.63371 | 24.89050 | 2075 ft | 126 kts | 349° |
| 2026-04-28 17:23 | 67.64223 | 24.88500 | 1860 ft | 126 kts | 349° |
| 2026-04-28 17:23 | 67.65076 | 24.87949 | 1633 ft | 127 kts | 349° |
| 2026-04-28 17:24 | 67.65935 | 24.87392 | 1408 ft | 127 kts | 347° |
| 2026-04-28 17:24 | 67.66789 | 24.86838 | 1197 ft | 126 kts | 346° |
| 2026-04-28 17:24 | 67.67642 | 24.86286 | 985 ft | 127 kts | 345° |
| 2026-04-28 17:24 | 67.68489 | 24.85727 | 780 ft | 125 kts | 347° |
| 2026-04-28 17:25 | 67.69327 | 24.85183 | 664 ft | 119 kts | 346° |
| 2026-04-28 17:25 | 67.70403 | 24.84495 | 641 ft | 32 kts | 346° |
| 2026-04-28 17:25 | 67.70525 | 24.84416 | 640 ft | 6 kts | 346° |
| 2026-04-28 17:26 | 67.70596 | 24.84374 | 642 ft | 16 kts | 347° |
| 2026-04-28 17:26 | 67.70693 | 24.84397 | 640 ft | 14 kts | 30° |
| 2026-04-28 17:26 | 67.70734 | 24.84588 | 640 ft | 10 kts | 75° |
| 2026-04-28 17:26 | 67.70709 | 24.84729 | 642 ft | 8 kts | 143° |
| 2026-04-28 17:27 | 67.70634 | 24.84785 | 640 ft | 21 kts | 165° |
| 2026-04-28 17:27 | 67.70453 | 24.84904 | 639 ft | 26 kts | 166° |
| 2026-04-28 17:27 | 67.70280 | 24.85017 | 639 ft | 25 kts | 166° |
| 2026-04-28 17:27 | 67.70115 | 24.85124 | 641 ft | 24 kts | 166° |
| 2026-04-28 17:28 | 67.69960 | 24.85226 | 640 ft | 23 kts | 165° |
| 2026-04-28 17:28 | 67.69682 | 24.85420 | 639 ft | 18 kts | 167° |
| 2026-04-28 17:28 | 67.69575 | 24.85489 | 640 ft | 14 kts | 166° |
| 2026-04-28 17:29 | 67.69547 | 24.85546 | 642 ft | 3 kts | 101° |
| 2026-04-28 17:29 | 67.69550 | 24.85601 | 639 ft | 4 kts | 82° |
| 2026-04-28 17:29 | 67.69550 | 24.85632 | 640 ft | 1 kts | 91° |
| 2026-04-28 17:30 | 67.69546 | 24.85664 | 646 ft | 1 kts | 113° |
| 2026-04-28 17:30 | 67.69543 | 24.85681 | 644 ft | 0 kts | 118° |
| 2026-04-28 17:30 | 67.69540 | 24.85690 | 640 ft | 0 kts | 120° |